Time;durP1;ratioP1;P1;durP2;ratioP2;P2;SDS_P1;SDS_P2;PMS_P1;PMS_P2;Temp;Humidity;BMP_temperature;BMP_pressure;BME280_temperature;BME280_humidity;BME280_pressure;Samples;Min_cycle;Max_cycle;Signal;HPM_P1;HPM_P2
2021/07/01 00:01:45;;;;;;;3.25;2.95;;;21.50;99.90;;;;;;5100717;28;20197;-70
2021/07/01 00:04:12;;;;;;;3.58;2.88;;;21.30;99.90;;;;;;5105716;28;20214;-70
2021/07/01 00:06:39;;;;;;;3.00;2.30;;;21.20;99.90;;;;;;5092985;28;20198;-70
2021/07/01 00:09:06;;;;;;;2.90;2.30;;;21.20;99.90;;;;;;5092501;28;20204;-70
2021/07/01 00:11:34;;;;;;;3.47;3.17;;;21.40;99.90;;;;;;5092256;28;20672;-70
2021/07/01 00:14:01;;;;;;;3.78;2.72;;;21.20;99.90;;;;;;5098158;28;20220;-70
2021/07/01 00:16:28;;;;;;;2.80;2.60;;;21.20;99.90;;;;;;5093443;28;20208;-70
2021/07/01 00:18:55;;;;;;;2.88;2.60;;;21.10;99.90;;;;;;5099660;28;20193;-70
2021/07/01 00:21:21;;;;;;;3.17;2.88;;;21.10;99.90;;;;;;5104044;28;20201;-70
2021/07/01 00:23:48;;;;;;;3.50;3.05;;;21.10;99.90;;;;;;5100469;28;20217;-69
2021/07/01 00:26:15;;;;;;;3.25;3.05;;;21.10;99.90;;;;;;5097734;28;20197;-69
2021/07/01 00:28:43;;;;;;;3.53;3.22;;;21.10;99.90;;;;;;5103072;28;20201;-70
2021/07/01 00:31:09;;;;;;;3.75;3.15;;;21.10;99.90;;;;;;5095881;28;20198;-70
2021/07/01 00:33:36;;;;;;;2.92;2.67;;;21.10;99.90;;;;;;5092748;28;20374;-70
2021/07/01 00:36:03;;;;;;;4.45;3.45;;;21.30;99.90;;;;;;5098621;28;20546;-70
2021/07/01 00:38:30;;;;;;;3.25;3.05;;;21.00;99.90;;;;;;5099470;28;20208;-70
2021/07/01 00:40:57;;;;;;;2.90;2.70;;;21.00;99.90;;;;;;5106735;28;20656;-69
2021/07/01 00:43:24;;;;;;;3.45;2.88;;;21.20;99.90;;;;;;5094800;28;20516;-69
2021/07/01 00:45:52;;;;;;;4.30;4.00;;;20.90;99.90;;;;;;5104544;28;20204;-69
2021/07/01 00:48:19;;;;;;;3.10;2.75;;;21.00;99.90;;;;;;5094768;28;20204;-70
2021/07/01 00:50:46;;;;;;;4.00;3.58;;;21.00;99.90;;;;;;5102997;28;20198;-70
2021/07/01 00:53:13;;;;;;;3.58;3.28;;;21.20;99.90;;;;;;5098443;28;20537;-69
2021/07/01 00:55:39;;;;;;;3.65;3.35;;;21.30;99.90;;;;;;5104008;28;20198;-69
2021/07/01 00:58:07;;;;;;;3.20;3.00;;;20.90;99.90;;;;;;5100613;28;20228;-69
2021/07/01 01:00:44;;;;;;;3.33;3.10;;;20.90;99.90;;;;;;5099758;28;20196;-70
2021/07/01 01:03:12;;;;;;;3.92;3.53;;;20.90;99.90;;;;;;5098898;28;20192;-69
2021/07/01 01:05:39;;;;;;;4.05;3.65;;;20.90;99.90;;;;;;5106555;28;20200;-69
2021/07/01 01:08:06;;;;;;;3.78;2.70;;;20.90;99.90;;;;;;5091526;28;20212;-69
2021/07/01 01:10:33;;;;;;;3.72;3.42;;;19.30;99.90;;;;;;5101651;28;20205;-70
2021/07/01 01:13:00;;;;;;;5.20;2.83;;;20.80;99.90;;;;;;5102654;28;20200;-70
2021/07/01 01:15:27;;;;;;;4.03;2.85;;;20.80;99.90;;;;;;5097100;28;20205;-70
2021/07/01 01:17:54;;;;;;;3.33;3.00;;;20.80;99.90;;;;;;5095777;28;20193;-70
2021/07/01 01:20:22;;;;;;;4.18;2.65;;;20.80;99.90;;;;;;5097824;28;20193;-70
2021/07/01 01:22:50;;;;;;;3.70;3.45;;;20.80;99.90;;;;;;5101878;28;20216;-70
2021/07/01 01:25:16;;;;;;;3.40;2.85;;;21.00;99.90;;;;;;5102278;28;20208;-70
2021/07/01 01:27:43;;;;;;;3.63;2.95;;;20.80;99.90;;;;;;5106527;28;20212;-71
2021/07/01 01:30:11;;;;;;;4.00;3.63;;;21.10;99.90;;;;;;5090915;28;20193;-70
2021/07/01 01:32:39;;;;;;;6.75;3.58;;;20.80;99.90;;;;;;5091179;28;20202;-70
2021/07/01 01:35:06;;;;;;;3.75;3.35;;;20.70;99.90;;;;;;5091555;28;20197;-70
2021/07/01 01:37:33;;;;;;;4.20;3.80;;;20.70;99.90;;;;;;5094552;28;20514;-70
2021/07/01 01:40:01;;;;;;;4.07;3.13;;;20.70;99.90;;;;;;5091786;28;20197;-70
2021/07/01 01:42:28;;;;;;;4.20;3.88;;;20.70;99.90;;;;;;5096334;28;20212;-70
2021/07/01 01:44:54;;;;;;;3.58;3.13;;;20.80;99.90;;;;;;5096204;28;20214;-70
2021/07/01 01:47:22;;;;;;;4.22;3.25;;;20.90;99.90;;;;;;5095308;28;20194;-70
2021/07/01 01:49:50;;;;;;;3.60;3.30;;;20.60;99.90;;;;;;5091411;28;20202;-70
2021/07/01 01:52:17;;;;;;;3.50;3.20;;;20.70;99.90;;;;;;5108508;28;20193;-70
2021/07/01 01:54:44;;;;;;;4.00;3.65;;;20.60;99.90;;;;;;5099328;28;20198;-70
2021/07/01 01:57:12;;;;;;;4.30;3.58;;;20.60;99.90;;;;;;5100426;28;20204;-69
2021/07/01 01:59:39;;;;;;;5.63;4.05;;;20.60;99.90;;;;;;5098640;28;20292;-70
2021/07/01 02:02:06;;;;;;;4.03;3.60;;;20.50;99.90;;;;;;5094254;28;20645;-70
2021/07/01 02:04:33;;;;;;;4.78;3.70;;;20.50;99.90;;;;;;5097473;28;20221;-70
2021/07/01 02:06:59;;;;;;;5.32;4.35;;;20.50;99.90;;;;;;5097036;28;20266;-70
2021/07/01 02:09:26;;;;;;;4.45;4.03;;;20.60;99.90;;;;;;5097203;28;20215;-70
2021/07/01 02:11:53;;;;;;;4.28;3.67;;;20.50;99.90;;;;;;5094300;28;20201;-70
2021/07/01 02:14:21;;;;;;;4.10;3.80;;;20.50;99.90;;;;;;5099592;28;20189;-70
2021/07/01 02:16:47;;;;;;;3.70;3.30;;;20.50;99.90;;;;;;5102389;28;20517;-70
2021/07/01 02:19:14;;;;;;;3.58;3.22;;;20.70;99.90;;;;;;5108019;28;20200;-70
2021/07/01 02:21:41;;;;;;;3.40;3.20;;;20.50;99.90;;;;;;5091072;28;20227;-70
2021/07/01 02:24:08;;;;;;;4.13;3.72;;;20.50;99.90;;;;;;5101226;28;20213;-70
2021/07/01 02:26:35;;;;;;;4.20;3.75;;;20.50;99.90;;;;;;5100266;28;20193;-70
2021/07/01 02:29:01;;;;;;;5.45;4.35;;;20.40;99.90;;;;;;5106604;28;20209;-70
2021/07/01 02:31:30;;;;;;;5.55;4.20;;;20.40;99.90;;;;;;5103749;28;20633;-70
2021/07/01 02:33:56;;;;;;;4.40;3.75;;;20.40;99.90;;;;;;5103456;28;20194;-70
2021/07/01 02:36:23;;;;;;;3.60;3.30;;;20.40;99.90;;;;;;5106493;28;20200;-69
2021/07/01 02:38:50;;;;;;;4.75;4.00;;;20.30;99.90;;;;;;5098656;28;20647;-70
2021/07/01 02:41:16;;;;;;;3.92;3.58;;;20.30;99.90;;;;;;5097657;28;20200;-69
2021/07/01 02:43:43;;;;;;;4.50;4.10;;;20.20;99.90;;;;;;5113087;28;20197;-70
2021/07/01 02:46:10;;;;;;;4.40;4.10;;;20.30;99.90;;;;;;5099589;28;20228;-70
2021/07/01 02:48:38;;;;;;;4.18;3.85;;;20.30;99.90;;;;;;5110852;28;20207;-69
2021/07/01 02:51:04;;;;;;;4.80;4.40;;;20.30;99.90;;;;;;5094508;28;20193;-70
2021/07/01 02:53:31;;;;;;;4.90;3.58;;;20.30;99.90;;;;;;5094827;28;20208;-69
2021/07/01 02:55:58;;;;;;;5.90;4.60;;;20.30;99.90;;;;;;5107278;28;20200;-69
2021/07/01 02:58:24;;;;;;;4.03;3.70;;;20.20;99.90;;;;;;5113101;28;20236;-69
2021/07/01 03:00:51;;;;;;;3.60;3.30;;;20.20;99.90;;;;;;5094364;28;20201;-70
2021/07/01 03:03:18;;;;;;;6.00;4.00;;;20.20;99.90;;;;;;5103519;28;20196;-70
2021/07/01 03:05:46;;;;;;;4.10;3.50;;;20.20;99.90;;;;;;5114871;28;20221;-70
2021/07/01 03:08:13;;;;;;;5.22;4.18;;;20.20;99.90;;;;;;5104917;28;20208;-70
2021/07/01 03:10:40;;;;;;;4.20;3.80;;;20.20;99.90;;;;;;5103671;28;20201;-70
2021/07/01 03:13:06;;;;;;;5.38;4.10;;;20.10;99.90;;;;;;5100368;28;20194;-70
2021/07/01 03:15:33;;;;;;;5.38;4.20;;;20.10;99.90;;;;;;5094263;28;20201;-70
2021/07/01 03:18:00;;;;;;;7.07;3.88;;;20.20;99.90;;;;;;5115175;28;20522;-70
2021/07/01 03:20:26;;;;;;;4.43;3.30;;;20.10;99.90;;;;;;5107685;28;20629;-70
2021/07/01 03:22:54;;;;;;;6.35;3.70;;;20.10;99.90;;;;;;5111021;28;20212;-71
2021/07/01 03:25:21;;;;;;;4.82;3.88;;;20.20;99.90;;;;;;5098516;28;20220;-70
2021/07/01 03:27:48;;;;;;;4.78;3.70;;;20.20;99.90;;;;;;5100200;28;20193;-70
2021/07/01 03:30:16;;;;;;;3.72;3.42;;;20.10;99.90;;;;;;5099417;28;20198;-70
2021/07/01 03:32:42;;;;;;;4.10;3.72;;;20.00;99.90;;;;;;5102743;28;20208;-70
2021/07/01 03:35:10;;;;;;;3.75;3.42;;;20.10;99.90;;;;;;5101193;28;20190;-70
2021/07/01 03:37:36;;;;;;;4.05;3.50;;;20.10;99.90;;;;;;5093637;28;20221;-70
2021/07/01 03:40:08;;;;;;;4.15;3.70;;;20.00;99.90;;;;;;5093215;28;20200;-71
2021/07/01 03:42:34;;;;;;;4.75;4.18;;;20.00;99.90;;;;;;5102467;28;20638;-71
2021/07/01 03:45:01;;;;;;;4.00;3.50;;;20.20;99.90;;;;;;5101998;28;20209;-70
2021/07/01 03:47:28;;;;;;;3.75;3.45;;;20.00;99.90;;;;;;5101187;28;20272;-69
2021/07/01 03:49:54;;;;;;;4.78;4.28;;;20.10;99.90;;;;;;5104873;28;20196;-69
2021/07/01 03:52:21;;;;;;;3.70;3.40;;;20.00;99.90;;;;;;5104641;28;20193;-69
2021/07/01 03:54:48;;;;;;;3.95;3.65;;;20.00;99.90;;;;;;5099718;28;20208;-69
2021/07/01 03:57:16;;;;;;;4.20;3.33;;;19.90;99.90;;;;;;5093331;28;20201;-70
2021/07/01 03:59:43;;;;;;;6.05;3.85;;;19.90;99.90;;;;;;5103976;28;22730;-69
2021/07/01 04:02:09;;;;;;;4.35;3.45;;;19.90;99.90;;;;;;5099931;28;20197;-69
2021/07/01 04:04:36;;;;;;;5.78;4.05;;;20.00;99.90;;;;;;5099075;28;20216;-69
2021/07/01 04:07:04;;;;;;;7.22;4.38;;;19.90;99.90;;;;;;5098481;28;20240;-70
2021/07/01 04:09:31;;;;;;;8.35;4.63;;;19.90;99.90;;;;;;5094988;28;20208;-70
2021/07/01 04:11:57;;;;;;;3.78;3.30;;;19.80;99.90;;;;;;5103379;28;20201;-70
2021/07/01 04:14:25;;;;;;;4.20;3.85;;;19.90;99.90;;;;;;5094107;28;20519;-70
2021/07/01 04:16:52;;;;;;;8.93;3.90;;;20.00;99.90;;;;;;5095006;28;20201;-70
2021/07/01 04:19:19;;;;;;;4.50;4.10;;;20.30;99.90;;;;;;5098972;28;20200;-70
2021/07/01 04:21:45;;;;;;;8.32;3.95;;;20.00;99.90;;;;;;5101830;28;20245;-70
2021/07/01 04:24:12;;;;;;;4.13;3.45;;;19.80;99.90;;;;;;5096342;28;20212;-70
2021/07/01 04:26:39;;;;;;;4.60;3.38;;;19.80;99.90;;;;;;5096288;28;20201;-70
2021/07/01 04:29:06;;;;;;;3.42;3.08;;;19.70;99.90;;;;;;5099071;28;20203;-70
2021/07/01 04:31:34;;;;;;;4.18;3.55;;;19.80;99.90;;;;;;5097970;28;21025;-71
2021/07/01 04:34:01;;;;;;;5.00;3.65;;;19.80;99.90;;;;;;5098340;28;20323;-70
2021/07/01 04:36:28;;;;;;;3.90;3.50;;;20.20;99.90;;;;;;5104261;28;20208;-71
2021/07/01 04:38:55;;;;;;;3.65;3.35;;;19.80;99.90;;;;;;5095448;28;20208;-70
2021/07/01 04:41:21;;;;;;;4.70;3.58;;;19.80;99.90;;;;;;5101589;28;20542;-70
2021/07/01 04:43:49;;;;;;;3.10;2.60;;;19.80;99.90;;;;;;5096715;28;20192;-70
2021/07/01 04:46:15;;;;;;;3.25;2.95;;;19.90;99.90;;;;;;5102063;28;20208;-70
2021/07/01 04:48:44;;;;;;;3.30;2.95;;;20.00;99.90;;;;;;5101521;28;20201;-70
2021/07/01 04:51:11;;;;;;;4.45;4.05;;;19.70;99.90;;;;;;5093686;28;20771;-71
2021/07/01 04:53:39;;;;;;;3.05;2.85;;;19.90;99.90;;;;;;5100542;28;20224;-70
2021/07/01 04:56:06;;;;;;;3.55;3.25;;;19.70;99.90;;;;;;5101164;28;20208;-69
2021/07/01 04:58:33;;;;;;;2.85;2.65;;;19.70;99.90;;;;;;5095191;28;20225;-70
2021/07/01 05:01:00;;;;;;;4.40;4.00;;;19.70;99.90;;;;;;5099686;28;20643;-70
2021/07/01 05:03:27;;;;;;;3.47;2.97;;;19.70;99.90;;;;;;5096498;28;20200;-70
2021/07/01 05:05:55;;;;;;;3.92;2.75;;;19.70;99.90;;;;;;5095157;28;20883;-70
2021/07/01 05:08:21;;;;;;;3.20;2.90;;;20.60;99.90;;;;;;5091981;28;20621;-70
2021/07/01 05:10:48;;;;;;;3.67;3.10;;;19.70;99.90;;;;;;5091182;28;20197;-70
2021/07/01 05:13:15;;;;;;;4.47;3.22;;;19.70;99.90;;;;;;5091345;28;20194;-70
2021/07/01 05:15:41;;;;;;;3.20;2.85;;;19.80;99.90;;;;;;5091955;28;20190;-70
2021/07/01 05:18:08;;;;;;;3.20;3.00;;;19.70;99.90;;;;;;5101686;28;20196;-70
2021/07/01 05:20:35;;;;;;;3.03;2.72;;;19.70;99.90;;;;;;5096686;28;20205;-70
2021/07/01 05:23:03;;;;;;;2.60;2.40;;;19.70;99.90;;;;;;5111091;28;20200;-70
2021/07/01 05:25:30;;;;;;;3.20;3.00;;;19.70;99.90;;;;;;5102543;28;20214;-70
2021/07/01 05:27:57;;;;;;;3.22;2.03;;;19.70;99.90;;;;;;5099468;28;20455;-70
2021/07/01 05:30:24;;;;;;;3.25;2.95;;;19.70;99.90;;;;;;5092224;28;20516;-70
2021/07/01 05:32:51;;;;;;;2.95;2.25;;;19.60;99.90;;;;;;5091689;28;20212;-70
2021/07/01 05:35:17;;;;;;;3.80;2.80;;;19.80;99.90;;;;;;5091927;28;20280;-70
2021/07/01 05:37:44;;;;;;;2.92;2.50;;;19.70;99.90;;;;;;5090980;28;20210;-70
2021/07/01 05:40:15;;;;;;;2.85;2.65;;;19.60;99.90;;;;;;5096394;28;20542;-70
2021/07/01 05:42:42;;;;;;;3.40;2.70;;;19.50;99.90;;;;;;5100308;28;20665;-70
2021/07/01 05:45:10;;;;;;;2.60;2.40;;;19.70;99.90;;;;;;5091207;28;20209;-71
2021/07/01 05:47:38;;;;;;;3.03;2.72;;;19.60;99.90;;;;;;5090790;28;20549;-70
2021/07/01 05:50:06;;;;;;;3.45;2.80;;;19.60;99.90;;;;;;5092187;28;20296;-70
2021/07/01 05:52:34;;;;;;;2.80;2.60;;;20.10;99.90;;;;;;5099723;28;20629;-70
2021/07/01 05:55:00;;;;;;;6.05;3.13;;;19.50;99.90;;;;;;5102456;28;20279;-69
2021/07/01 05:57:29;;;;;;;3.35;2.50;;;19.50;99.90;;;;;;5097000;28;20208;-70
2021/07/01 05:59:56;;;;;;;3.25;2.95;;;19.60;99.90;;;;;;5102074;28;20661;-70
2021/07/01 06:02:23;;;;;;;4.00;3.60;;;19.60;99.90;;;;;;5097147;28;20204;-69
2021/07/01 06:04:50;;;;;;;2.30;2.10;;;19.50;99.90;;;;;;5103635;28;20204;-70
2021/07/01 06:07:20;;;;;;;3.83;2.70;;;19.50;99.90;;;;;;5088436;28;20216;-70
2021/07/01 06:09:49;;;;;;;2.90;2.65;;;19.70;99.90;;;;;;5095788;28;20198;-71
2021/07/01 06:12:17;;;;;;;3.65;3.08;;;19.50;99.90;;;;;;5104164;28;20208;-70
2021/07/01 06:14:45;;;;;;;2.85;2.65;;;19.80;99.90;;;;;;5100325;28;20196;-70
2021/07/01 06:17:17;;;;;;;2.55;2.35;;;19.50;99.90;;;;;;5098050;28;20691;-70
2021/07/01 06:19:46;;;;;;;3.40;2.17;;;19.50;99.90;;;;;;5097130;28;20641;-69
2021/07/01 06:22:13;;;;;;;2.50;2.30;;;19.50;99.90;;;;;;5102927;28;20537;-70
2021/07/01 06:24:40;;;;;;;2.75;2.42;;;19.40;99.90;;;;;;5100700;28;20200;-70
2021/07/01 06:27:07;;;;;;;3.42;2.92;;;19.50;99.90;;;;;;5091465;28;20208;-70
2021/07/01 06:29:34;;;;;;;3.15;2.65;;;19.50;99.90;;;;;;5102380;28;20200;-69
2021/07/01 06:32:02;;;;;;;2.63;2.30;;;19.40;99.90;;;;;;5091042;28;20378;-69
2021/07/01 06:34:29;;;;;;;2.90;2.35;;;19.50;99.90;;;;;;5096265;28;20677;-71
2021/07/01 06:37:00;;;;;;;2.30;2.10;;;19.50;99.90;;;;;;5097309;28;20628;-71
2021/07/01 06:39:28;;;;;;;2.90;2.60;;;19.40;99.90;;;;;;5096199;28;20632;-71
2021/07/01 06:41:57;;;;;;;2.60;2.40;;;19.40;99.90;;;;;;5099370;28;20204;-70
2021/07/01 06:44:27;;;;;;;2.78;2.58;;;19.40;99.90;;;;;;5099453;28;20213;-70
2021/07/01 06:46:54;;;;;;;3.45;2.75;;;19.40;99.90;;;;;;5098607;28;20217;-71
2021/07/01 06:49:25;;;;;;;2.10;1.90;;;19.40;99.90;;;;;;5100843;28;20201;-70
2021/07/01 06:51:54;;;;;;;5.63;2.67;;;19.40;99.90;;;;;;5094074;28;20189;-70
2021/07/01 06:54:22;;;;;;;3.15;2.30;;;19.40;99.90;;;;;;5093608;28;20201;-70
2021/07/01 06:56:49;;;;;;;2.90;2.58;;;19.40;99.90;;;;;;5097376;28;20638;-70
2021/07/01 06:59:15;;;;;;;2.72;2.50;;;19.40;99.90;;;;;;5092360;28;20524;-70
2021/07/01 07:01:42;;;;;;;2.75;2.55;;;19.30;99.90;;;;;;5101302;28;20587;-69
2021/07/01 07:04:11;;;;;;;2.72;2.45;;;19.40;99.90;;;;;;5092690;28;20265;-70
2021/07/01 07:06:40;;;;;;;2.83;2.63;;;19.30;99.90;;;;;;5092334;28;20248;-70
2021/07/01 07:09:07;;;;;;;3.15;2.85;;;19.30;99.90;;;;;;5101474;28;20200;-70
2021/07/01 07:11:36;;;;;;;3.38;2.60;;;19.50;99.90;;;;;;5098628;28;20212;-70
2021/07/01 07:14:03;;;;;;;4.28;3.67;;;19.40;99.90;;;;;;5112377;28;20193;-70
2021/07/01 07:16:32;;;;;;;4.97;3.58;;;19.30;99.90;;;;;;5109615;28;20226;-70
2021/07/01 07:19:00;;;;;;;2.90;2.65;;;19.30;99.90;;;;;;5094172;28;20642;-70
2021/07/01 07:21:27;;;;;;;3.85;2.65;;;19.30;99.90;;;;;;5097312;28;20463;-70
2021/07/01 07:23:56;;;;;;;6.07;2.45;;;19.30;99.90;;;;;;5101234;28;20200;-70
2021/07/01 07:26:25;;;;;;;3.83;2.50;;;19.30;99.90;;;;;;5103316;28;20217;-70
2021/07/01 07:28:53;;;;;;;3.85;2.42;;;19.30;99.90;;;;;;5094558;28;20197;-70
2021/07/01 07:31:24;;;;;;;3.63;2.75;;;19.20;99.90;;;;;;5097057;28;20199;-70
2021/07/01 07:33:54;;;;;;;3.25;2.58;;;19.50;99.90;;;;;;5094295;28;20220;-69
2021/07/01 07:36:21;;;;;;;3.92;2.80;;;19.50;99.90;;;;;;5109792;28;20189;-70
2021/07/01 07:38:50;;;;;;;2.67;2.47;;;19.40;99.90;;;;;;5093723;28;20577;-70
2021/07/01 07:41:19;;;;;;;3.65;2.60;;;19.40;99.90;;;;;;5094685;28;20611;-70
2021/07/01 07:43:47;;;;;;;3.72;2.40;;;19.30;99.90;;;;;;5103163;28;20723;-69
2021/07/01 07:46:14;;;;;;;2.30;2.10;;;19.30;99.90;;;;;;5109773;28;20221;-70
2021/07/01 07:48:41;;;;;;;2.60;2.40;;;19.20;99.90;;;;;;5101779;28;20193;-69
2021/07/01 07:51:10;;;;;;;3.90;2.78;;;19.20;99.90;;;;;;5093917;28;20258;-70
2021/07/01 07:53:39;;;;;;;4.72;3.85;;;19.20;99.90;;;;;;5101463;28;20197;-70
2021/07/01 07:56:08;;;;;;;5.80;2.60;;;19.30;99.90;;;;;;5093809;28;20194;-69
2021/07/01 07:58:41;;;;;;;4.30;2.30;;;19.40;99.90;;;;;;5094103;28;20262;-69
2021/07/01 08:01:10;;;;;;;3.20;2.63;;;19.50;99.90;;;;;;5095574;28;20302;-70
2021/07/01 08:03:39;;;;;;;3.10;2.13;;;19.20;99.90;;;;;;5094381;28;20209;-69
2021/07/01 08:06:08;;;;;;;3.25;2.92;;;19.40;99.90;;;;;;5093258;28;20225;-70
2021/07/01 08:08:38;;;;;;;2.45;2.25;;;19.20;99.90;;;;;;5093075;28;20572;-69
2021/07/01 08:11:08;;;;;;;2.45;2.25;;;19.40;99.90;;;;;;5107128;28;20620;-69
2021/07/01 08:13:37;;;;;;;2.70;2.50;;;19.10;99.90;;;;;;5095958;28;20207;-69
2021/07/01 08:16:05;;;;;;;2.70;2.50;;;19.20;99.90;;;;;;5109755;28;20288;-68
2021/07/01 08:18:36;;;;;;;3.28;2.58;;;19.30;99.90;;;;;;5093744;28;20204;-69
2021/07/01 08:21:03;;;;;;;2.80;2.60;;;19.20;99.90;;;;;;5102128;28;20197;-69
2021/07/01 08:23:30;;;;;;;4.70;3.40;;;19.20;99.90;;;;;;5111220;28;20197;-69
2021/07/01 08:25:59;;;;;;;4.60;2.92;;;19.60;99.90;;;;;;5100977;28;20663;-69
2021/07/01 08:28:26;;;;;;;4.00;2.92;;;19.10;99.90;;;;;;5106760;28;20224;-69
2021/07/01 08:30:55;;;;;;;3.58;2.80;;;19.20;99.90;;;;;;5092986;28;20206;-68
2021/07/01 08:33:22;;;;;;;2.75;2.47;;;19.10;99.90;;;;;;5100820;28;20201;-68
2021/07/01 08:35:52;;;;;;;6.47;3.00;;;19.10;99.90;;;;;;5109723;28;20197;-68
2021/07/01 08:38:19;;;;;;;3.70;2.75;;;19.10;99.90;;;;;;5098581;28;20189;-69
2021/07/01 08:40:47;;;;;;;2.95;2.22;;;19.30;99.90;;;;;;5112753;28;20633;-68
2021/07/01 08:43:17;;;;;;;3.67;2.95;;;19.20;99.90;;;;;;5094151;27;20225;-68
2021/07/01 08:45:51;;;;;;;3.50;2.97;;;19.20;99.90;;;;;;5097035;28;20274;-68
2021/07/01 08:48:24;;;;;;;3.40;3.00;;;19.10;99.90;;;;;;5092599;28;20193;-68
2021/07/01 08:50:54;;;;;;;4.35;2.75;;;19.10;99.90;;;;;;5092479;28;20197;-68
2021/07/01 08:53:46;;;;;;;3.92;3.10;;;19.20;99.90;;;;;;5105729;28;20632;-68
2021/07/01 08:56:17;;;;;;;3.40;3.10;;;19.40;99.90;;;;;;5069211;28;20309;-68
2021/07/01 08:58:48;;;;;;;3.72;3.25;;;19.20;99.90;;;;;;5112003;28;20231;-70
2021/07/01 09:01:18;;;;;;;3.85;3.20;;;19.10;99.90;;;;;;5107967;28;20192;-68
2021/07/01 09:03:48;;;;;;;3.63;2.88;;;19.20;99.90;;;;;;5109663;28;20208;-68
2021/07/01 09:06:22;;;;;;;6.00;3.95;;;19.30;99.90;;;;;;5094283;28;20212;-68
2021/07/01 09:08:50;;;;;;;2.92;2.65;;;19.20;99.90;;;;;;5092566;28;20217;-68
2021/07/01 09:11:20;;;;;;;3.58;3.28;;;19.10;99.90;;;;;;5105238;28;20238;-68
2021/07/01 09:13:48;;;;;;;3.97;3.58;;;19.50;99.90;;;;;;5107641;28;20262;-68
2021/07/01 09:16:16;;;;;;;4.85;3.50;;;19.40;99.90;;;;;;5103345;28;20272;-68
2021/07/01 09:18:46;;;;;;;3.80;3.40;;;19.30;99.90;;;;;;5095380;28;20258;-68
2021/07/01 09:21:13;;;;;;;3.58;3.28;;;19.70;99.90;;;;;;5104628;28;20568;-68
2021/07/01 09:23:45;;;;;;;4.43;3.75;;;19.40;99.90;;;;;;5102812;28;20664;-69
2021/07/01 09:26:19;;;;;;;4.10;3.80;;;19.20;99.90;;;;;;5102254;28;20216;-68
2021/07/01 09:28:48;;;;;;;4.10;3.78;;;19.20;99.90;;;;;;5094283;28;20221;-68
2021/07/01 09:31:17;;;;;;;6.13;3.88;;;19.20;99.90;;;;;;5091572;28;20204;-69
2021/07/01 09:33:47;;;;;;;4.20;3.80;;;19.20;99.90;;;;;;5107102;28;20188;-68
2021/07/01 09:36:15;;;;;;;3.70;3.40;;;19.20;99.90;;;;;;5092723;28;20681;-68
2021/07/01 09:38:43;;;;;;;2.63;2.42;;;19.20;99.90;;;;;;5094396;28;20626;-68
2021/07/01 09:41:11;;;;;;;3.60;3.30;;;19.20;99.90;;;;;;5110394;28;20211;-68
2021/07/01 09:43:40;;;;;;;4.93;4.53;;;19.20;99.90;;;;;;5111730;28;20259;-68
2021/07/01 09:46:11;;;;;;;5.07;4.57;;;19.20;99.90;;;;;;5110779;28;20258;-68
2021/07/01 09:48:44;;;;;;;3.63;3.42;;;19.60;99.90;;;;;;5095987;28;20222;-68
2021/07/01 09:51:12;;;;;;;3.53;3.20;;;19.20;99.90;;;;;;5091469;28;20251;-68
2021/07/01 09:53:40;;;;;;;3.90;3.47;;;19.20;99.90;;;;;;5107142;28;20189;-68
2021/07/01 09:56:07;;;;;;;3.92;3.58;;;19.10;99.90;;;;;;5106954;28;20402;-68
2021/07/01 09:58:38;;;;;;;5.30;3.65;;;19.20;99.90;;;;;;5104084;28;20490;-68
2021/07/01 10:01:05;;;;;;;4.07;3.67;;;19.20;99.90;;;;;;5092332;28;20208;-68
2021/07/01 10:03:50;;;;;;;5.40;3.50;;;19.30;99.90;;;;;;5097226;28;20641;-68
2021/07/01 10:06:19;;;;;;;4.28;3.88;;;19.20;99.90;;;;;;5106311;28;20227;-68
2021/07/01 10:08:47;;;;;;;4.10;3.70;;;19.10;99.90;;;;;;5109044;28;20192;-69
2021/07/01 10:11:15;;;;;;;4.07;3.45;;;18.90;99.90;;;;;;5091856;28;20592;-68
2021/07/01 10:13:52;;;;;;;3.90;3.60;;;19.00;99.90;;;;;;5095073;28;20200;-69
2021/07/01 10:16:22;;;;;;;3.70;3.40;;;19.40;99.90;;;;;;5106360;28;20188;-68
2021/07/01 10:18:49;;;;;;;3.65;3.30;;;19.60;99.90;;;;;;5109562;28;20200;-69
2021/07/01 10:21:16;;;;;;;3.65;3.35;;;19.20;99.90;;;;;;5111616;28;20223;-68
2021/07/01 10:23:44;;;;;;;4.25;3.60;;;19.10;99.90;;;;;;5099736;28;20198;-68
2021/07/01 10:26:12;;;;;;;6.70;4.60;;;19.40;99.90;;;;;;5095110;28;20213;-69
2021/07/01 10:28:40;;;;;;;3.58;3.28;;;19.20;99.90;;;;;;5090578;28;20455;-67
2021/07/01 10:31:09;;;;;;;3.65;3.35;;;19.30;99.90;;;;;;5109210;28;20197;-68
2021/07/01 10:33:37;;;;;;;3.90;3.60;;;19.10;99.90;;;;;;5101182;28;20516;-68
2021/07/01 10:36:06;;;;;;;3.38;3.17;;;19.10;99.90;;;;;;5091668;28;20201;-68
2021/07/01 10:38:52;;;;;;;3.92;3.63;;;19.00;99.90;;;;;;5101534;28;20201;-69
2021/07/01 10:41:27;;;;;;;5.80;4.20;;;19.10;99.90;;;;;;5106497;28;20599;-68
2021/07/01 10:43:53;;;;;;;4.63;4.22;;;19.30;99.90;;;;;;5112838;28;20195;-68
2021/07/01 10:46:20;;;;;;;4.35;3.58;;;19.10;99.90;;;;;;5095097;28;20241;-69
2021/07/01 10:48:56;;;;;;;4.13;3.75;;;19.10;99.90;;;;;;5099047;28;20197;-69
2021/07/01 10:51:24;;;;;;;4.57;4.18;;;19.60;99.90;;;;;;5109462;28;20203;-69
2021/07/01 10:53:52;;;;;;;3.70;3.40;;;19.50;99.90;;;;;;5098612;28;20184;-68
2021/07/01 10:56:39;;;;;;;5.03;4.60;;;19.00;99.90;;;;;;5103385;28;20555;-68
2021/07/01 10:59:06;;;;;;;4.93;4.40;;;19.20;99.90;;;;;;5095243;28;20229;-69
2021/07/01 11:01:37;;;;;;;3.85;3.55;;;19.10;99.90;;;;;;5093976;28;20205;-69
2021/07/01 11:04:08;;;;;;;2.95;2.75;;;19.10;99.90;;;;;;5109222;28;20284;-68
2021/07/01 11:06:35;;;;;;;4.47;4.07;;;19.30;99.90;;;;;;5115689;28;20212;-68
2021/07/01 11:09:04;;;;;;;3.30;3.00;;;19.20;99.90;;;;;;5114085;28;20224;-69
2021/07/01 11:11:33;;;;;;;19.67;4.28;;;19.20;99.90;;;;;;5113766;28;20541;-68
2021/07/01 11:14:02;;;;;;;5.05;3.30;;;19.30;99.90;;;;;;5115074;28;20632;-68
2021/07/01 11:16:33;;;;;;;3.63;3.33;;;19.20;99.90;;;;;;5111960;28;20201;-68
2021/07/01 11:19:00;;;;;;;3.08;2.85;;;19.10;99.90;;;;;;5095060;28;20193;-69
2021/07/01 11:21:27;;;;;;;2.85;2.65;;;19.30;99.90;;;;;;5111669;28;20205;-68
2021/07/01 11:24:16;;;;;;;2.85;2.58;;;19.30;99.90;;;;;;5105738;28;20201;-68
2021/07/01 11:26:44;;;;;;;3.47;3.17;;;19.40;99.90;;;;;;5097566;28;20228;-68
2021/07/01 11:29:11;;;;;;;3.60;2.75;;;19.20;99.90;;;;;;5098924;28;20555;-68
2021/07/01 11:31:44;;;;;;;3.25;2.63;;;19.10;99.90;;;;;;5105123;28;20201;-69
2021/07/01 11:34:11;;;;;;;3.10;2.90;;;19.10;99.90;;;;;;5100001;28;20287;-70
2021/07/01 11:36:39;;;;;;;2.45;2.25;;;19.10;99.90;;;;;;5095547;28;20204;-69
2021/07/01 11:39:13;;;;;;;2.80;2.60;;;19.20;99.90;;;;;;5104867;28;20240;-69
2021/07/01 11:41:44;;;;;;;2.88;2.67;;;19.10;99.90;;;;;;5106535;28;20197;-69
2021/07/01 11:44:12;;;;;;;3.00;2.70;;;19.10;99.90;;;;;;5093727;28;20197;-69
2021/07/01 11:46:39;;;;;;;3.67;2.78;;;19.30;99.90;;;;;;5098027;28;20263;-69
2021/07/01 11:49:07;;;;;;;3.03;2.72;;;19.00;99.90;;;;;;5093924;28;20202;-69
2021/07/01 11:51:35;;;;;;;2.60;2.40;;;19.10;99.90;;;;;;5094949;28;20208;-69
2021/07/01 11:54:02;;;;;;;2.85;2.65;;;19.10;99.90;;;;;;5093512;28;20194;-70
2021/07/01 11:56:30;;;;;;;3.03;2.83;;;19.70;99.90;;;;;;5107021;28;20627;-69
2021/07/01 11:58:58;;;;;;;3.05;2.85;;;19.10;99.90;;;;;;5111035;28;20236;-72
2021/07/01 12:01:27;;;;;;;2.95;2.75;;;19.00;99.90;;;;;;5114230;28;20219;-70
2021/07/01 12:03:54;;;;;;;4.40;3.20;;;19.10;99.90;;;;;;5107963;28;20205;-70
2021/07/01 12:06:35;;;;;;;3.28;2.33;;;19.00;99.90;;;;;;5094537;28;20523;-69
2021/07/01 12:09:02;;;;;;;2.70;2.50;;;19.20;99.90;;;;;;5107458;28;20228;-68
2021/07/01 12:11:29;;;;;;;2.78;2.58;;;19.10;99.90;;;;;;5107470;28;20197;-68
2021/07/01 12:13:55;;;;;;;2.40;2.20;;;19.00;99.90;;;;;;5107919;28;20200;-68
2021/07/01 12:16:24;;;;;;;3.40;2.05;;;19.10;99.90;;;;;;5108925;28;20274;-69
2021/07/01 12:18:56;;;;;;;2.67;2.47;;;19.00;99.90;;;;;;5106637;28;20197;-69
2021/07/01 12:21:25;;;;;;;2.40;2.20;;;19.20;99.90;;;;;;5097703;28;20211;-69
2021/07/01 12:23:53;;;;;;;2.42;2.00;;;18.90;99.90;;;;;;5091798;28;20459;-70
2021/07/01 12:26:40;;;;;;;2.97;2.75;;;19.20;99.90;;;;;;5092082;28;20205;-69
2021/07/01 12:29:13;;;;;;;4.68;2.50;;;19.00;99.90;;;;;;5092223;28;20205;-69
2021/07/01 12:31:42;;;;;;;3.17;2.50;;;19.00;99.90;;;;;;5092699;28;20186;-70
2021/07/01 12:34:10;;;;;;;2.67;2.47;;;19.10;99.90;;;;;;5092740;28;20266;-69
2021/07/01 12:36:40;;;;;;;2.65;2.42;;;19.00;99.90;;;;;;5094796;28;20201;-69
2021/07/01 12:39:22;;;;;;;3.78;2.72;;;19.10;99.90;;;;;;5100184;28;20197;-69
2021/07/01 12:41:52;;;;;;;3.00;2.80;;;19.10;99.90;;;;;;5110169;28;20618;-70
2021/07/01 12:44:20;;;;;;;2.63;2.42;;;19.00;99.90;;;;;;5092236;28;20247;-69
2021/07/01 12:47:10;;;;;;;2.88;2.67;;;19.00;99.90;;;;;;5092337;28;20216;-69
2021/07/01 12:50:05;;;;;;;2.70;2.33;;;18.90;99.90;;;;;;5092276;28;20224;-69
2021/07/01 12:52:37;;;;;;;2.17;2.00;;;19.00;99.90;;;;;;5079370;28;20202;-70
2021/07/01 12:55:06;;;;;;;1.63;1.52;;;19.10;99.90;;;;;;5092133;28;20213;-69